createdAt,value
2018-08-17T00:00:09.747Z,23.98
2018-08-17T00:01:47.386Z,23.92
2018-08-17T00:03:25.182Z,23.99
2018-08-17T00:05:01.822Z,24.05
2018-08-17T00:06:39.238Z,23.93
2018-08-17T00:08:21.202Z,24.18
2018-08-17T00:09:59.537Z,24.20
2018-08-17T00:11:38.513Z,24.06
2018-08-17T00:13:15.317Z,24.26
2018-08-17T00:14:52.340Z,24.25
2018-08-17T00:16:29.574Z,24.25
2018-08-17T00:18:12.687Z,24.35
2018-08-17T00:19:48.569Z,24.27
2018-08-17T00:21:27.196Z,24.14
2018-08-17T00:23:05.431Z,23.92
2018-08-17T00:24:42.434Z,23.87
2018-08-17T00:26:17.776Z,23.51
2018-08-17T00:27:54.550Z,23.32
2018-08-17T00:29:32.652Z,23.71
2018-08-17T00:31:09.482Z,23.59
2018-08-17T00:32:46.272Z,23.44
2018-08-17T00:34:21.982Z,23.37
2018-08-17T00:35:58.251Z,23.32
2018-08-17T00:37:35.562Z,23.19
2018-08-17T00:39:11.727Z,23.13
2018-08-17T00:40:49.027Z,23.17
2018-08-17T00:42:25.843Z,23.01
2018-08-17T00:44:01.929Z,23.02
2018-08-17T00:45:41.744Z,22.91
2018-08-17T00:47:16.993Z,22.94
2018-08-17T00:48:52.875Z,23.15
2018-08-17T00:50:29.455Z,23.34
2018-08-17T00:52:05.135Z,23.64
2018-08-17T00:53:41.177Z,23.55
2018-08-17T00:55:17.660Z,23.77
2018-08-17T00:56:55.646Z,24.06
2018-08-17T00:58:32.865Z,24.02
2018-08-17T01:00:12.586Z,24.12
2018-08-17T01:01:48.860Z,24.17
2018-08-17T01:03:26.950Z,24.28
2018-08-17T01:05:04.362Z,24.38
2018-08-17T01:06:42.662Z,24.45
2018-08-17T01:08:19.678Z,24.44
2018-08-17T01:09:58.485Z,24.56
2018-08-17T01:11:45.181Z,24.75
2018-08-17T01:13:21.830Z,24.73
2018-08-17T01:15:01.427Z,24.59
2018-08-17T01:16:37.634Z,24.24
2018-08-17T01:18:14.172Z,24.11
2018-08-17T01:19:49.777Z,24.08
2018-08-17T01:21:25.922Z,23.90
2018-08-17T01:23:02.504Z,23.64
2018-08-17T01:24:37.674Z,23.76
2018-08-17T01:26:14.070Z,24.15
2018-08-17T01:27:49.313Z,24.45
2018-08-17T01:29:27.365Z,24.53
2018-08-17T01:31:03.700Z,24.47
2018-08-17T01:32:39.450Z,24.23
2018-08-17T01:34:14.618Z,24.15
2018-08-17T01:35:52.292Z,24.12
2018-08-17T01:37:28.561Z,24.03
2018-08-17T01:39:06.560Z,23.97
2018-08-17T01:40:42.653Z,23.83
2018-08-17T01:42:18.628Z,23.76
2018-08-17T01:43:53.846Z,23.63
2018-08-17T01:45:29.753Z,23.49
2018-08-17T01:47:05.072Z,23.42
2018-08-17T01:48:41.328Z,23.39
2018-08-17T01:50:20.559Z,23.18
2018-08-17T01:51:59.698Z,23.00
2018-08-17T01:53:37.893Z,22.83
2018-08-17T01:55:15.745Z,22.76
2018-08-17T01:56:52.586Z,22.72
2018-08-17T01:58:28.495Z,22.61
2018-08-17T02:00:05.743Z,22.46
2018-08-17T02:01:43.130Z,22.42
2018-08-17T02:03:18.422Z,22.40
2018-08-17T02:04:54.495Z,22.33
2018-08-17T02:06:31.247Z,22.40
2018-08-17T02:08:11.310Z,22.31
2018-08-17T02:09:47.050Z,22.17
2018-08-17T02:11:22.628Z,22.17
2018-08-17T02:12:59.512Z,22.15
2018-08-17T02:14:35.434Z,22.12
2018-08-17T02:16:11.023Z,22.06
2018-08-17T02:17:46.273Z,21.93
2018-08-17T02:19:22.258Z,21.83
2018-08-17T02:20:58.210Z,21.70
2018-08-17T02:22:33.444Z,21.58
2018-08-17T02:24:08.890Z,21.60
2018-08-17T02:25:44.310Z,21.55
2018-08-17T02:27:20.108Z,21.50
2018-08-17T02:28:55.405Z,21.48
2018-08-17T02:30:31.012Z,21.51
2018-08-17T02:32:07.506Z,21.45
2018-08-17T02:33:44.194Z,21.36
2018-08-17T02:35:22.026Z,21.21
2018-08-17T02:37:00.834Z,21.16
2018-08-17T02:38:38.334Z,21.12
2018-08-17T02:41:58.358Z,21.28
2018-08-17T02:43:34.235Z,21.25
2018-08-17T02:45:10.465Z,21.18
2018-08-17T02:46:47.112Z,21.03
2018-08-17T02:48:22.575Z,20.82
2018-08-17T02:49:57.807Z,20.81
2018-08-17T02:51:33.449Z,20.89
2018-08-17T02:53:09.395Z,20.91
2018-08-17T02:54:45.717Z,20.91
2018-08-17T02:56:23.378Z,20.94
2018-08-17T02:57:58.951Z,20.88
2018-08-17T02:59:34.798Z,20.78
2018-08-17T03:01:11.234Z,20.68
2018-08-17T03:02:46.716Z,20.59
2018-08-17T03:04:22.484Z,20.50
2018-08-17T03:05:58.567Z,20.52
2018-08-17T03:07:33.732Z,20.63
2018-08-17T03:09:11.195Z,20.76
2018-08-17T03:10:46.434Z,20.93
2018-08-17T03:12:21.959Z,21.02
2018-08-17T03:13:58.082Z,21.06
2018-08-17T03:15:33.626Z,20.97
2018-08-17T03:17:09.836Z,20.94
2018-08-17T03:18:45.492Z,21.09
2018-08-17T03:20:20.729Z,21.26
2018-08-17T03:21:55.898Z,21.23
2018-08-17T03:23:31.417Z,21.20
2018-08-17T03:25:06.664Z,21.13
2018-08-17T03:26:42.639Z,21.02
2018-08-17T03:28:17.847Z,21.00
2018-08-17T03:29:53.312Z,21.01
2018-08-17T03:31:30.467Z,20.97
2018-08-17T03:33:05.693Z,20.95
2018-08-17T03:34:41.549Z,20.94
2018-08-17T03:36:17.611Z,21.03
2018-08-17T03:37:52.836Z,21.12
2018-08-17T03:39:28.808Z,21.06
2018-08-17T03:41:04.917Z,21.03
2018-08-17T03:42:41.634Z,20.85
2018-08-17T03:44:16.811Z,20.70
2018-08-17T03:45:52.384Z,20.46
2018-08-17T03:47:29.936Z,20.41
2018-08-17T03:49:07.248Z,20.48
2018-08-17T03:50:45.470Z,20.47
2018-08-17T03:52:21.066Z,20.49
2018-08-17T03:53:57.736Z,20.52
2018-08-17T03:55:32.940Z,20.39
2018-08-17T03:57:08.670Z,20.38
2018-08-17T03:58:44.349Z,20.39
2018-08-17T04:00:22.851Z,20.41
2018-08-17T04:01:59.292Z,20.42
2018-08-17T04:03:35.213Z,20.35
2018-08-17T04:05:10.927Z,20.36
2018-08-17T04:06:47.095Z,20.35
2018-08-17T04:08:23.549Z,20.46
2018-08-17T04:09:59.054Z,20.57
2018-08-17T04:11:35.530Z,20.76
2018-08-17T04:13:11.786Z,20.91
2018-08-17T04:14:46.950Z,20.97
2018-08-17T04:16:22.566Z,21.09
2018-08-17T04:17:58.460Z,21.12
2018-08-17T04:19:35.791Z,21.20
2018-08-17T04:21:10.998Z,21.31
2018-08-17T04:22:46.781Z,21.38
2018-08-17T04:24:23.347Z,21.38
2018-08-17T04:26:00.434Z,21.31
2018-08-17T04:27:36.442Z,21.44
2018-08-17T04:29:11.961Z,21.51
2018-08-17T04:30:47.621Z,21.64
2018-08-17T04:32:25.132Z,21.73
2018-08-17T04:34:00.959Z,21.89
2018-08-17T04:35:36.193Z,21.96
2018-08-17T04:37:14.787Z,22.04
2018-08-17T04:40:21.486Z,22.13
2018-08-17T04:41:59.635Z,22.29
2018-08-17T04:43:35.218Z,22.39
2018-08-17T04:45:10.961Z,22.49
2018-08-17T04:46:46.499Z,22.52
2018-08-17T04:48:22.115Z,22.44
2018-08-17T04:50:00.775Z,22.18
2018-08-17T04:51:39.795Z,21.78
2018-08-17T04:53:15.943Z,21.48
2018-08-17T04:54:51.149Z,21.14
2018-08-17T04:56:27.006Z,20.95
2018-08-17T04:58:03.254Z,20.88
2018-08-17T04:59:39.230Z,20.87
2018-08-17T05:01:14.750Z,20.90
2018-08-17T05:02:50.150Z,20.81
2018-08-17T05:04:26.364Z,20.63
2018-08-17T05:06:01.591Z,20.54
2018-08-17T05:07:37.434Z,20.54
2018-08-17T05:09:17.185Z,20.49
2018-08-17T05:10:53.238Z,20.50
2018-08-17T05:12:35.422Z,20.54
2018-08-17T05:14:13.019Z,20.61
2018-08-17T05:15:49.073Z,20.72
2018-08-17T05:17:35.667Z,20.73
2018-08-17T05:19:11.594Z,20.73
2018-08-17T05:20:47.005Z,20.92
2018-08-17T05:22:22.222Z,21.03
2018-08-17T05:23:57.606Z,21.11
2018-08-17T05:25:35.484Z,21.20
2018-08-17T05:27:11.855Z,21.18
2018-08-17T05:28:47.730Z,21.27
2018-08-17T05:30:47.963Z,21.23
2018-08-17T05:32:30.159Z,20.96
2018-08-17T05:34:12.766Z,20.78
2018-08-17T05:35:54.111Z,20.85
2018-08-17T05:37:30.829Z,20.91
2018-08-17T05:39:07.625Z,20.94
2018-08-17T05:40:43.532Z,20.94
2018-08-17T05:42:19.557Z,21.01
2018-08-17T05:43:55.697Z,20.86
2018-08-17T05:45:32.752Z,20.86
2018-08-17T05:47:11.760Z,20.85
2018-08-17T05:48:47.462Z,20.67
2018-08-17T05:50:25.075Z,20.74
2018-08-17T05:52:02.388Z,20.82
2018-08-17T05:53:37.647Z,20.98
2018-08-17T05:55:13.369Z,21.09
2018-08-17T05:56:50.385Z,21.23
2018-08-17T05:58:27.080Z,21.34
2018-08-17T06:00:05.651Z,21.50
2018-08-17T06:01:41.299Z,21.54
2018-08-17T06:03:16.647Z,21.67
2018-08-17T06:04:54.236Z,21.69
2018-08-17T06:06:29.927Z,21.82
2018-08-17T06:08:05.604Z,21.66
2018-08-17T06:09:40.824Z,21.37
2018-08-17T06:11:16.083Z,20.88
2018-08-17T06:12:51.271Z,20.35
2018-08-17T06:14:26.675Z,20.23
2018-08-17T06:16:04.929Z,20.28
2018-08-17T06:17:41.253Z,20.30
2018-08-17T06:19:16.585Z,19.69
2018-08-17T06:20:54.790Z,19.35
2018-08-17T06:22:29.956Z,19.46
2018-08-17T06:24:06.319Z,19.08
2018-08-17T06:25:41.565Z,18.94
2018-08-17T06:27:17.545Z,18.79
2018-08-17T06:28:53.650Z,18.60
2018-08-17T06:30:29.397Z,18.57
2018-08-17T06:32:05.058Z,18.49
2018-08-17T06:33:40.795Z,18.40
2018-08-17T06:35:16.219Z,18.25
2018-08-17T06:36:53.111Z,18.44
2018-08-17T06:38:28.321Z,18.59
2018-08-17T06:40:05.495Z,18.50
2018-08-17T06:41:43.985Z,18.44
2018-08-17T06:43:19.493Z,18.33
2018-08-17T06:44:54.686Z,18.22
2018-08-17T06:46:30.616Z,18.26
2018-08-17T06:48:14.828Z,18.26
2018-08-17T06:49:53.644Z,18.29
2018-08-17T06:51:34.688Z,18.34
2018-08-17T06:53:10.438Z,18.50
2018-08-17T06:54:46.590Z,18.54
2018-08-17T06:56:22.759Z,18.81
2018-08-17T06:57:58.524Z,19.06
2018-08-17T06:59:33.741Z,19.58
2018-08-17T07:01:09.214Z,19.98
2018-08-17T07:02:45.948Z,19.87
2018-08-17T07:04:28.217Z,19.76
2018-08-17T07:06:05.209Z,19.75
2018-08-17T07:07:41.973Z,19.56
2018-08-17T07:09:19.624Z,19.36
2018-08-17T07:10:55.377Z,19.09
2018-08-17T07:12:31.941Z,19.04
2018-08-17T07:14:07.750Z,19.02
2018-08-17T07:15:43.617Z,19.10
2018-08-17T07:17:20.286Z,19.17
2018-08-17T07:18:59.293Z,19.15
2018-08-17T07:20:35.536Z,19.14
2018-08-17T07:22:12.670Z,19.10
2018-08-17T07:23:48.846Z,19.09
2018-08-17T07:25:24.042Z,19.29
2018-08-17T07:27:02.877Z,19.51
2018-08-17T07:28:39.529Z,19.72
2018-08-17T07:30:18.048Z,20.14
2018-08-17T07:31:54.423Z,20.49
2018-08-17T07:33:32.312Z,20.87
2018-08-17T07:35:12.204Z,21.07
2018-08-17T07:36:50.849Z,21.32
2018-08-17T07:38:27.847Z,21.39
2018-08-17T07:40:04.253Z,21.43
2018-08-17T07:41:41.748Z,21.30
2018-08-17T07:43:18.360Z,21.19
2018-08-17T07:44:58.075Z,20.88
2018-08-17T07:46:35.826Z,21.01
2018-08-17T07:48:17.465Z,21.15
2018-08-17T07:49:52.525Z,21.06
2018-08-17T07:51:30.636Z,21.12
2018-08-17T07:53:10.727Z,21.35
2018-08-17T07:54:50.377Z,21.62
2018-08-17T07:56:26.540Z,21.95
2018-08-17T07:58:03.490Z,22.27
2018-08-17T07:59:39.108Z,22.29
2018-08-17T08:01:18.049Z,22.28
2018-08-17T08:02:53.280Z,22.20
2018-08-17T08:04:31.062Z,22.02
2018-08-17T08:06:09.183Z,21.97
2018-08-17T08:07:48.502Z,22.01
2018-08-17T08:09:27.619Z,22.04
2018-08-17T08:11:04.326Z,21.99
2018-08-17T08:12:44.409Z,21.85
2018-08-17T08:14:20.919Z,21.89
2018-08-17T08:15:56.546Z,21.91
2018-08-17T08:17:32.451Z,22.02
2018-08-17T08:19:13.685Z,22.15
2018-08-17T08:20:48.957Z,22.21
2018-08-17T08:22:24.126Z,22.30
2018-08-17T08:23:59.379Z,22.38
2018-08-17T08:25:35.222Z,22.49
2018-08-17T08:27:12.788Z,22.54
2018-08-17T08:28:48.027Z,22.49
2018-08-17T08:30:25.131Z,22.54
2018-08-17T08:32:07.601Z,22.56
2018-08-17T08:33:44.337Z,22.48
2018-08-17T08:35:22.012Z,22.50
2018-08-17T08:37:01.670Z,22.49
2018-08-17T08:38:38.817Z,22.54
2018-08-17T08:40:14.734Z,22.67
2018-08-17T08:41:50.520Z,22.53
2018-08-17T08:43:28.127Z,22.77
2018-08-17T08:45:08.178Z,22.97
2018-08-17T08:46:44.984Z,23.10
2018-08-17T08:48:23.582Z,23.17
2018-08-17T08:50:00.867Z,23.25
2018-08-17T08:51:41.330Z,23.13
2018-08-17T08:53:20.294Z,22.91
2018-08-17T08:54:55.591Z,22.69
2018-08-17T08:56:33.866Z,22.55
2018-08-17T08:58:20.134Z,22.51
2018-08-17T09:00:02.670Z,22.55
2018-08-17T09:01:39.234Z,22.35
2018-08-17T09:03:14.454Z,22.20
2018-08-17T09:04:50.381Z,22.14
2018-08-17T09:06:26.579Z,21.97
2018-08-17T09:08:01.986Z,21.86
2018-08-17T09:09:38.227Z,21.74
2018-08-17T09:11:16.253Z,21.76
2018-08-17T09:12:52.689Z,21.72
2018-08-17T09:14:34.203Z,21.64
2018-08-17T09:16:11.115Z,21.64
2018-08-17T09:17:46.337Z,21.54
2018-08-17T09:19:24.155Z,21.49
2018-08-17T09:21:03.642Z,21.38
2018-08-17T09:22:42.853Z,21.36
2018-08-17T09:24:19.335Z,21.35
2018-08-17T09:25:54.976Z,21.40
2018-08-17T09:27:36.432Z,21.49
2018-08-17T09:31:06.642Z,21.66
2018-08-17T09:32:54.072Z,21.75
2018-08-17T09:34:34.641Z,21.81
2018-08-17T09:36:10.082Z,21.82
2018-08-17T09:37:46.136Z,21.89
2018-08-17T09:39:24.801Z,21.94
2018-08-17T09:41:00.387Z,22.03
2018-08-17T09:42:36.971Z,22.10
2018-08-17T09:44:15.321Z,21.99
2018-08-17T09:45:52.428Z,21.81
2018-08-17T09:47:29.122Z,21.69
2018-08-17T09:49:05.946Z,21.56
2018-08-17T09:50:44.026Z,21.49
2018-08-17T09:52:19.503Z,21.46
2018-08-17T09:53:55.334Z,21.49
2018-08-17T09:55:30.779Z,21.39
2018-08-17T09:57:07.118Z,21.46
2018-08-17T09:58:42.403Z,21.44
2018-08-17T10:00:20.045Z,21.44
2018-08-17T10:02:01.182Z,21.49
2018-08-17T10:03:43.903Z,21.48
2018-08-17T10:07:18.008Z,21.48
2018-08-17T10:09:04.757Z,21.58
2018-08-17T10:10:43.291Z,21.68
2018-08-17T10:12:25.190Z,21.77
2018-08-17T10:14:01.121Z,21.99
2018-08-17T10:15:39.982Z,22.20
2018-08-17T10:17:16.571Z,22.42
2018-08-17T10:18:52.879Z,22.63
2018-08-17T10:20:29.996Z,22.79
2018-08-17T10:22:10.326Z,22.89
2018-08-17T10:23:46.406Z,23.02
2018-08-17T10:25:24.923Z,23.11
2018-08-17T10:27:02.283Z,23.06
2018-08-17T10:28:39.118Z,23.15
2018-08-17T10:30:18.528Z,23.10
2018-08-17T10:31:57.786Z,22.68
2018-08-17T10:33:35.508Z,22.45
2018-08-17T10:35:23.617Z,22.44
2018-08-17T10:37:01.603Z,22.83
2018-08-17T10:38:38.500Z,23.16
2018-08-17T10:40:13.854Z,23.40
2018-08-17T10:41:50.541Z,23.44
2018-08-17T10:43:26.654Z,23.38
2018-08-17T10:45:04.208Z,23.11
2018-08-17T10:46:39.745Z,23.04
2018-08-17T10:48:16.053Z,23.05
2018-08-17T10:50:02.780Z,22.82
2018-08-17T10:51:47.927Z,22.87
2018-08-17T10:53:48.567Z,22.93
2018-08-17T10:55:29.473Z,23.09
2018-08-17T10:57:07.332Z,23.15
2018-08-17T10:58:46.899Z,23.03
2018-08-17T11:00:23.994Z,23.24
2018-08-17T11:02:00.921Z,23.54
2018-08-17T11:03:36.273Z,23.76
2018-08-17T11:05:12.223Z,23.94
2018-08-17T11:06:47.937Z,23.98
2018-08-17T11:08:24.192Z,23.97
2018-08-17T11:10:05.510Z,23.97
2018-08-17T11:11:44.383Z,23.77
2018-08-17T11:13:23.296Z,23.47
2018-08-17T11:14:59.922Z,23.42
2018-08-17T11:16:36.427Z,23.29
2018-08-17T11:18:17.006Z,23.06
2018-08-17T11:19:55.867Z,23.04
2018-08-17T11:21:31.412Z,23.04
2018-08-17T11:23:06.788Z,23.06
2018-08-17T11:24:42.537Z,22.98
2018-08-17T11:26:23.102Z,22.86
2018-08-17T11:28:01.444Z,22.90
2018-08-17T11:29:37.981Z,22.94
2018-08-17T11:31:26.319Z,22.96
2018-08-17T11:33:03.395Z,22.89
2018-08-17T11:34:43.199Z,22.85
2018-08-17T11:36:25.737Z,22.83
2018-08-17T11:38:06.849Z,22.78
2018-08-17T11:39:49.371Z,22.60
2018-08-17T11:41:27.308Z,22.62
2018-08-17T11:43:05.641Z,22.49
2018-08-17T11:44:47.098Z,22.25
2018-08-17T11:46:49.485Z,22.15
2018-08-17T11:48:35.518Z,22.23
2018-08-17T11:50:14.456Z,22.39
2018-08-17T11:51:50.835Z,22.62
2018-08-17T11:53:27.448Z,22.72
2018-08-17T11:55:04.317Z,22.66
2018-08-17T11:56:39.545Z,22.82
2018-08-17T11:58:16.200Z,22.92
2018-08-17T11:59:57.398Z,22.96
2018-08-17T12:01:45.931Z,23.04
2018-08-17T12:03:24.789Z,23.16
2018-08-17T12:05:01.605Z,23.26
2018-08-17T12:06:37.192Z,23.27
2018-08-17T12:08:16.676Z,23.33
2018-08-17T12:10:05.747Z,23.47
2018-08-17T12:13:50.658Z,23.28
2018-08-17T12:15:33.830Z,23.24
2018-08-17T12:17:10.444Z,23.23
2018-08-17T12:18:46.812Z,23.36
2018-08-17T12:20:23.102Z,23.33
2018-08-17T12:22:12.237Z,23.43
2018-08-17T12:23:49.586Z,23.52
2018-08-17T12:25:26.913Z,23.69
2018-08-17T12:27:03.381Z,23.67
2018-08-17T12:28:41.917Z,23.66
2018-08-17T12:30:26.570Z,23.70
2018-08-17T12:32:04.685Z,23.85
2018-08-17T12:33:42.701Z,23.89
2018-08-17T12:35:21.537Z,23.89
2018-08-17T12:37:02.523Z,23.97
2018-08-17T12:38:47.827Z,23.78
2018-08-17T12:40:39.643Z,23.63
2018-08-17T12:42:17.695Z,23.77
2018-08-17T12:43:58.201Z,23.98
2018-08-17T12:45:38.608Z,24.01
2018-08-17T12:47:22.761Z,23.97
2018-08-17T12:49:04.410Z,24.09
2018-08-17T12:50:55.323Z,24.07
2018-08-17T12:52:43.744Z,24.27
2018-08-17T12:54:27.477Z,24.31
2018-08-17T12:56:08.615Z,24.43
2018-08-17T12:57:48.574Z,24.57
2018-08-17T12:59:31.372Z,24.42
2018-08-17T13:01:13.647Z,24.42
2018-08-17T13:03:00.291Z,24.47
2018-08-17T13:04:43.433Z,24.44
2018-08-17T13:06:19.764Z,24.50
2018-08-17T13:07:56.610Z,24.63
2018-08-17T13:09:35.622Z,24.81
2018-08-17T13:11:13.034Z,24.99
2018-08-17T13:13:11.591Z,25.05
2018-08-17T13:14:51.006Z,25.17
2018-08-17T13:16:32.692Z,25.28
2018-08-17T13:18:21.789Z,25.25
2018-08-17T13:19:57.342Z,25.11
2018-08-17T13:21:34.384Z,25.16
2018-08-17T13:23:11.924Z,25.13
2018-08-17T13:24:52.725Z,25.12
2018-08-17T13:26:39.163Z,24.89
2018-08-17T13:28:57.811Z,24.58
2018-08-17T13:30:49.375Z,24.44
2018-08-17T13:32:28.636Z,24.54
2018-08-17T13:34:04.024Z,24.62
2018-08-17T13:35:45.370Z,24.56
2018-08-17T13:37:26.165Z,24.65
2018-08-17T13:39:03.620Z,24.54
2018-08-17T13:40:41.167Z,24.48
2018-08-17T13:42:19.103Z,24.64
2018-08-17T13:43:55.991Z,24.72
2018-08-17T13:45:34.304Z,24.81
2018-08-17T13:47:10.377Z,24.79
2018-08-17T13:48:48.308Z,24.91
2018-08-17T13:50:27.380Z,25.00
2018-08-17T13:52:05.859Z,25.08
2018-08-17T13:53:41.193Z,25.05
2018-08-17T13:55:16.562Z,24.99
2018-08-17T13:56:52.160Z,24.95
2018-08-17T13:58:28.344Z,25.01
2018-08-17T14:00:14.042Z,25.05
2018-08-17T14:01:51.387Z,25.07
2018-08-17T14:03:27.856Z,24.86
2018-08-17T14:05:05.771Z,24.70
2018-08-17T14:06:42.644Z,24.74
2018-08-17T14:08:18.004Z,24.78
2018-08-17T14:09:53.980Z,24.80
2018-08-17T14:11:31.245Z,25.08
2018-08-17T14:13:07.550Z,25.25
2018-08-17T14:14:43.733Z,25.39
2018-08-17T14:16:19.595Z,25.52
2018-08-17T14:17:56.352Z,25.50
2018-08-17T14:19:34.468Z,25.66
2018-08-17T14:21:11.658Z,25.73
2018-08-17T14:22:48.001Z,25.76
2018-08-17T14:24:24.432Z,25.71
2018-08-17T14:26:01.488Z,25.58
2018-08-17T14:27:37.378Z,25.35
2018-08-17T14:29:16.482Z,25.41
2018-08-17T14:31:09.397Z,25.46
2018-08-17T14:32:45.190Z,25.31
2018-08-17T14:34:22.841Z,25.16
2018-08-17T14:36:00.761Z,24.97
2018-08-17T14:37:37.846Z,24.99
2018-08-17T14:39:15.410Z,25.00
2018-08-17T14:40:50.726Z,25.04
2018-08-17T14:42:27.994Z,25.01
2018-08-17T14:44:04.915Z,25.09
2018-08-17T14:45:42.473Z,25.10
2018-08-17T14:47:20.801Z,24.95
2018-08-17T14:48:59.720Z,24.96
2018-08-17T14:50:36.640Z,25.07
2018-08-17T14:52:12.287Z,25.24
2018-08-17T14:53:48.441Z,25.46
2018-08-17T14:55:24.351Z,25.52
2018-08-17T14:57:00.537Z,25.50
2018-08-17T14:58:39.375Z,25.49
2018-08-17T15:00:27.596Z,25.52
2018-08-17T15:02:06.023Z,25.55
2018-08-17T15:03:43.925Z,25.51
2018-08-17T15:05:21.152Z,25.37
2018-08-17T15:06:58.664Z,25.47
2018-08-17T15:08:35.484Z,25.44
2018-08-17T15:10:14.539Z,25.41
2018-08-17T15:11:50.533Z,25.35
2018-08-17T15:13:31.693Z,25.33
2018-08-17T15:15:11.776Z,25.25
2018-08-17T15:16:47.973Z,25.19
2018-08-17T15:18:29.111Z,25.25
2018-08-17T15:20:09.528Z,25.38
2018-08-17T15:21:46.834Z,25.44
2018-08-17T15:23:22.118Z,25.47
2018-08-17T15:24:58.440Z,25.56
2018-08-17T15:26:42.326Z,25.53
2018-08-17T15:28:28.275Z,25.56
2018-08-17T15:30:07.146Z,25.74
2018-08-17T15:31:42.617Z,25.87
2018-08-17T15:33:22.540Z,25.82
2018-08-17T15:34:59.244Z,25.79
2018-08-17T15:36:35.547Z,25.86
2018-08-17T15:38:12.287Z,25.91
2018-08-17T15:39:51.192Z,25.97
2018-08-17T15:41:27.694Z,26.17
2018-08-17T15:43:07.346Z,26.25
2018-08-17T15:44:43.479Z,26.36
2018-08-17T15:46:22.995Z,26.38
2018-08-17T15:48:00.018Z,26.35
2018-08-17T15:49:37.774Z,26.23
2018-08-17T15:51:16.141Z,26.12
2018-08-17T15:52:53.591Z,26.07
2018-08-17T15:54:32.029Z,25.85
2018-08-17T15:56:09.284Z,25.64
2018-08-17T15:57:50.049Z,25.52
2018-08-17T16:01:13.858Z,25.50
2018-08-17T16:02:49.794Z,25.80
2018-08-17T16:04:27.626Z,26.00
2018-08-17T16:06:04.253Z,26.14
2018-08-17T16:07:40.618Z,26.13
2018-08-17T16:09:16.451Z,26.09
2018-08-17T16:10:51.757Z,26.06
2018-08-17T16:12:28.585Z,25.82
2018-08-17T16:14:04.943Z,25.75
2018-08-17T16:15:43.934Z,25.71
2018-08-17T16:17:19.584Z,25.74
2018-08-17T16:18:57.280Z,25.71
2018-08-17T16:20:33.387Z,25.10
2018-08-17T16:22:09.771Z,25.06
2018-08-17T16:23:45.005Z,25.44
2018-08-17T16:25:21.456Z,25.63
2018-08-17T16:27:06.381Z,25.60
2018-08-17T16:28:46.100Z,25.57
2018-08-17T16:30:26.914Z,25.67
2018-08-17T16:32:06.866Z,25.59
2018-08-17T16:33:44.474Z,25.57
2018-08-17T16:35:22.352Z,25.59
2018-08-17T16:37:00.165Z,25.74
2018-08-17T16:38:40.170Z,25.75
2018-08-17T16:40:16.801Z,25.74
2018-08-17T16:41:54.281Z,25.81
2018-08-17T16:43:45.641Z,25.53
2018-08-17T16:45:22.111Z,25.59
2018-08-17T16:46:57.590Z,25.73
2018-08-17T16:48:34.531Z,25.80
2018-08-17T16:50:12.460Z,25.65
2018-08-17T16:51:52.122Z,25.59
2018-08-17T16:53:30.688Z,25.67
2018-08-17T16:55:07.874Z,25.70
2018-08-17T16:56:47.895Z,25.80
2018-08-17T16:58:25.629Z,25.81
2018-08-17T17:00:02.557Z,25.82
2018-08-17T17:01:40.005Z,25.84
2018-08-17T17:03:16.525Z,25.90
2018-08-17T17:04:54.607Z,25.96
2018-08-17T17:06:34.554Z,26.02
2018-08-17T17:08:10.681Z,26.02
2018-08-17T17:09:46.645Z,25.95
2018-08-17T17:11:22.763Z,26.10
2018-08-17T17:12:59.304Z,26.30
2018-08-17T17:14:37.965Z,26.27
2018-08-17T17:16:13.903Z,26.31
2018-08-17T17:17:58.866Z,26.35
2018-08-17T17:19:34.724Z,26.44
2018-08-17T17:21:10.285Z,26.57
2018-08-17T17:22:49.604Z,26.55
2018-08-17T17:24:25.399Z,26.25
2018-08-17T17:26:04.712Z,26.18
2018-08-17T17:27:40.795Z,26.15
2018-08-17T17:31:00.329Z,26.11
2018-08-17T17:32:36.373Z,26.15
2018-08-17T17:34:13.436Z,26.14
2018-08-17T17:35:52.598Z,25.98
2018-08-17T17:37:28.267Z,25.92
2018-08-17T17:39:05.887Z,25.91
2018-08-17T17:40:45.513Z,25.96
2018-08-17T17:42:24.848Z,26.06
2018-08-17T17:44:01.640Z,26.02
2018-08-17T17:45:40.226Z,26.14
2018-08-17T17:47:16.389Z,26.19
2018-08-17T17:48:54.033Z,26.07
2018-08-17T17:50:30.658Z,25.96
2018-08-17T17:53:38.779Z,25.74
2018-08-17T17:55:14.471Z,25.28
2018-08-17T17:57:02.653Z,25.09
2018-08-17T17:58:38.679Z,25.28
2018-08-17T18:00:21.407Z,25.36
2018-08-17T18:02:00.273Z,25.47
2018-08-17T18:03:37.319Z,25.65
2018-08-17T18:05:14.458Z,25.87
2018-08-17T18:06:52.450Z,25.99
2018-08-17T18:08:28.431Z,25.98
2018-08-17T18:10:07.335Z,26.00
2018-08-17T18:11:43.489Z,26.04
2018-08-17T18:13:22.239Z,26.25
2018-08-17T18:14:57.982Z,26.34
2018-08-17T18:16:37.465Z,26.39
2018-08-17T18:18:14.056Z,26.44
2018-08-17T18:19:54.585Z,26.44
2018-08-17T18:21:34.689Z,26.40
2018-08-17T18:23:10.817Z,26.51
2018-08-17T18:24:48.279Z,26.58
2018-08-17T18:26:25.263Z,26.55
2018-08-17T18:28:02.504Z,26.50
2018-08-17T18:29:38.057Z,26.42
2018-08-17T18:31:13.955Z,26.30
2018-08-17T18:32:51.453Z,26.24
2018-08-17T18:34:27.850Z,26.29
2018-08-17T18:36:08.652Z,26.43
2018-08-17T18:37:44.685Z,26.42
2018-08-17T18:39:24.822Z,26.41
2018-08-17T18:41:00.684Z,26.43
2018-08-17T18:42:36.318Z,26.30
2018-08-17T18:44:14.050Z,26.31
2018-08-17T18:45:51.751Z,26.32
2018-08-17T18:47:28.106Z,26.25
2018-08-17T18:49:03.432Z,26.14
2018-08-17T18:50:40.868Z,26.16
2018-08-17T18:52:17.498Z,26.18
2018-08-17T18:53:57.609Z,26.17
2018-08-17T18:57:01.498Z,26.14
2018-08-17T18:58:38.542Z,26.14
2018-08-17T19:00:16.375Z,26.03
2018-08-17T19:01:53.167Z,25.97
2018-08-17T19:03:29.028Z,25.87
2018-08-17T19:05:06.085Z,25.82
2018-08-17T19:06:42.437Z,25.75
2018-08-17T19:08:21.070Z,25.71
2018-08-17T19:09:57.376Z,25.66
2018-08-17T19:11:34.792Z,25.41
2018-08-17T19:13:11.341Z,25.35
2018-08-17T19:14:52.780Z,25.41
2018-08-17T19:16:35.578Z,25.38
2018-08-17T19:18:12.403Z,25.49
2018-08-17T19:19:49.465Z,25.51
2018-08-17T19:21:29.683Z,25.49
2018-08-17T19:23:05.824Z,25.52
2018-08-17T19:24:44.390Z,25.54
2018-08-17T19:26:22.458Z,25.62
2018-08-17T19:28:00.477Z,25.70
2018-08-17T19:29:36.746Z,25.71
2018-08-17T19:31:12.288Z,25.61
2018-08-17T19:32:51.056Z,25.49
2018-08-17T19:34:33.178Z,25.49
2018-08-17T19:36:08.932Z,25.48
2018-08-17T19:37:47.993Z,25.46
2018-08-17T19:39:34.823Z,25.47
2018-08-17T19:41:11.198Z,25.48
2018-08-17T19:42:48.948Z,25.52
2018-08-17T19:44:39.738Z,25.46
2018-08-17T19:46:17.236Z,25.42
2018-08-17T19:49:49.424Z,25.32
2018-08-17T19:51:26.538Z,25.30
2018-08-17T19:53:05.828Z,25.23
2018-08-17T19:54:44.638Z,25.27
2018-08-17T19:56:22.156Z,25.21
2018-08-17T19:58:03.501Z,25.24
2018-08-17T19:59:55.839Z,25.39
2018-08-17T20:01:37.566Z,25.42
2018-08-17T20:03:17.320Z,25.35
2018-08-17T20:04:53.016Z,25.22
2018-08-17T20:06:33.723Z,25.21
2018-08-17T20:08:18.294Z,25.25
2018-08-17T20:11:40.594Z,25.13
2018-08-17T20:13:18.634Z,25.11
2018-08-17T20:14:54.455Z,25.06
2018-08-17T20:16:30.969Z,25.01
2018-08-17T20:18:06.563Z,24.94
2018-08-17T20:19:49.143Z,24.95
2018-08-17T20:21:25.702Z,24.90
2018-08-17T20:23:03.322Z,24.90
2018-08-17T20:24:38.637Z,24.85
2018-08-17T20:26:15.356Z,24.76
2018-08-17T20:27:51.245Z,24.76
2018-08-17T20:29:28.258Z,24.74
2018-08-17T20:31:04.206Z,24.74
2018-08-17T20:32:41.603Z,24.72
2018-08-17T20:34:17.581Z,24.67
2018-08-17T20:35:53.110Z,24.59
2018-08-17T20:37:28.350Z,24.57
2018-08-17T20:39:12.569Z,24.56
2018-08-17T20:40:47.933Z,24.47
2018-08-17T20:42:24.890Z,24.52
2018-08-17T20:44:01.788Z,24.47
2018-08-17T20:45:37.807Z,24.38
2018-08-17T20:47:15.936Z,24.29
2018-08-17T20:48:52.279Z,24.25
2018-08-17T20:50:27.784Z,24.24
2018-08-17T20:52:06.507Z,24.16
2018-08-17T20:53:41.661Z,24.18
2018-08-17T20:55:18.623Z,24.14
2018-08-17T20:56:54.470Z,24.05
2018-08-17T20:58:29.773Z,23.88
2018-08-17T21:00:05.858Z,23.77
2018-08-17T21:01:43.695Z,23.73
2018-08-17T21:03:24.403Z,23.68
2018-08-17T21:05:00.868Z,23.60
2018-08-17T21:06:37.350Z,23.63
2018-08-17T21:08:15.774Z,23.66
2018-08-17T21:09:52.855Z,23.63
2018-08-17T21:11:29.073Z,23.56
2018-08-17T21:13:06.578Z,23.57
2018-08-17T21:14:42.079Z,23.58
2018-08-17T21:16:17.606Z,23.49
2018-08-17T21:17:53.176Z,23.54
2018-08-17T21:19:34.645Z,23.55